Main page
METAR-TAF:

METAR-TAF

Airports :

Ponta Porã International Airport

Ponta Porã, Mato Grosso do Sul, Brazil

latitude: 22-33S, longitude: 055-42W, elevation: 657 m

Current weather observation

The report was made 6 hours and 28 minutes ago, at 22:00 UTC
Calm wind
Temperature 25°C
Humidity 50%
Pressure 1015 hPa
Visibility 10 km or more
no clouds below 1500 m and no cumulonimbus

METAR: SBPP 152200Z 00000KT CAVOK 25/14 Q1015

Time: 00:28 (04:28 UTC)

Forecast

The report was made 13 hours and 28 minutes ago, at 15:00 UTC
Forecast valid from 15 at 18 UTC to 16 at 18 UTC
Wind 13 kt from the North/Northwest
Visibility 10 km or more
no clouds below 1500 m and no cumulonimbus
Becoming
from 15 at 22 UTC to 15 at 24 UTC
Wind 10 kt from the North
Becoming
from 16 at 14 UTC to 16 at 16 UTC
Wind 12 kt from the North/Northwest

TAF: SBPP 151500Z 1518/1618 34013KT CAVOK TN18/1608Z TX32/1618Z BECMG 1522/1524 01010KT BECMG 1614/1616 34012KT RMK PDJ

Weather observations and forecasts of more than 4000 airports (METAR and TAF reports).

The available stations are represented by yellow and red dots on the map.

Hover mouse over dot to see the name of the station.

Then click to see weather observations and forecasts.

To change the map : click on the green buttons with a black cross to zoom in, on the green button with a dash to zoom out, or on the green arrows for adjacent maps.


METAR-TAF: